KEWB/EWB METAR and TAF weather

Enter ICAO airport designator
Station Type Date Time Source
KEWB METAR 2022/09/26 07:53 UTC NOAA

KEWB 260753Z AUTO 21005KT 8SM CLR 16/16 A2956 RMK AO2 SLP010 T01560156


Station Type Date Time Source
KEWB Decoded METAR 2022/09/26 07:53 UTC NOAA

NEW BEDFORD REGIONAL AIRPORT, MA, United States (KEWB) 41-41N 070-58W 23M
Sep 26, 2022 - 03:53 AM EDT / 2022.09.26 0753 UTC
Wind: from the SSW (210 degrees) at 6 MPH (5 KT):0
Visibility: 8 mile(s):0
Sky conditions: clear
Temperature: 60.1 F (15.6 C)
Dew Point: 60.1 F (15.6 C)
Relative Humidity: 100%
Pressure (altimeter): 29.56 in. Hg (1001 hPa)
ob: KEWB 260753Z AUTO 21005KT 8SM CLR 16/16 A2956 RMK AO2 SLP010 T01560156
cycle: 8

Station Type Date Time Source
KEWB TAF UTC NOAA

Error!

Example: see airport list